Time;durP1;ratioP1;P1;durP2;ratioP2;P2;SDS_P1;SDS_P2;PMS_P1;PMS_P2;Temp;Humidity;BMP_temperature;BMP_pressure;BME280_temperature;BME280_humidity;BME280_pressure;Samples;Min_cycle;Max_cycle;Signal;HPM_P1;HPM_P2
2022/03/18 00:02:17;;;;;;;37.07;27.90;;;8.10;99.90;;;;;;5004706;28;20503;-68
2022/03/18 00:04:43;;;;;;;36.80;28.20;;;8.10;99.90;;;;;;5004951;28;20468;-69
2022/03/18 00:07:09;;;;;;;37.00;29.40;;;8.10;99.90;;;;;;5002408;28;20643;-68
2022/03/18 00:09:34;;;;;;;33.97;27.60;;;8.10;99.90;;;;;;5001804;28;20203;-68
2022/03/18 00:12:00;;;;;;;41.33;26.83;;;8.10;99.90;;;;;;5010336;28;20647;-68
2022/03/18 00:14:25;;;;;;;33.23;27.80;;;8.10;99.90;;;;;;5005830;28;20181;-69
2022/03/18 00:16:51;;;;;;;34.67;26.97;;;8.00;99.90;;;;;;5006770;28;20183;-69
2022/03/18 00:19:17;;;;;;;35.30;25.67;;;8.10;99.90;;;;;;5004916;28;20210;-68
2022/03/18 00:21:43;;;;;;;31.33;24.93;;;8.10;99.90;;;;;;5013213;28;20171;-71
2022/03/18 00:24:08;;;;;;;30.13;26.17;;;8.10;99.90;;;;;;5004718;28;20956;-69
2022/03/18 00:26:34;;;;;;;34.83;26.10;;;8.20;99.90;;;;;;5006907;28;20210;-71
2022/03/18 00:29:00;;;;;;;35.50;24.33;;;8.10;99.90;;;;;;5009772;28;20211;-68
2022/03/18 00:31:25;;;;;;;32.03;24.20;;;8.10;99.90;;;;;;5007479;28;20230;-69
2022/03/18 00:33:51;;;;;;;29.07;24.00;;;8.10;99.90;;;;;;5009746;28;20441;-69
2022/03/18 00:36:16;;;;;;;34.10;26.30;;;8.10;99.90;;;;;;5014568;28;20266;-69
2022/03/18 00:38:42;;;;;;;29.33;24.60;;;8.20;99.90;;;;;;5003030;28;20245;-71
2022/03/18 00:41:08;;;;;;;29.30;23.17;;;8.20;99.90;;;;;;5011191;28;20645;-69
2022/03/18 00:43:34;;;;;;;30.90;26.40;;;8.20;99.90;;;;;;5014708;28;20266;-69
2022/03/18 00:45:59;;;;;;;30.47;25.00;;;8.10;99.90;;;;;;5013602;28;20224;-69
2022/03/18 00:53:53;;;;;;;29.47;23.67;;;8.10;99.90;;;;;;5001370;28;20481;-71
2022/03/18 00:56:19;;;;;;;29.27;24.10;;;8.00;99.90;;;;;;5012192;28;20458;-69
2022/03/18 00:58:45;;;;;;;29.40;24.50;;;8.10;99.90;;;;;;5003539;28;20215;-69
2022/03/18 01:01:11;;;;;;;28.83;22.47;;;8.10;99.90;;;;;;5005695;28;20519;-69
2022/03/18 01:03:36;;;;;;;28.17;24.27;;;8.20;99.90;;;;;;5001646;28;20186;-69
2022/03/18 01:06:02;;;;;;;30.10;23.63;;;8.20;99.90;;;;;;5009563;28;20190;-70
2022/03/18 01:08:28;;;;;;;28.87;23.07;;;8.20;99.90;;;;;;5001670;28;20652;-70
2022/03/18 01:10:54;;;;;;;29.73;22.10;;;8.20;99.90;;;;;;4995626;28;20438;-70
2022/03/18 01:13:21;;;;;;;27.80;22.90;;;8.20;99.90;;;;;;5003683;28;20531;-70
2022/03/18 01:15:46;;;;;;;30.60;24.03;;;8.10;99.90;;;;;;4990345;28;20543;-70
2022/03/18 01:18:12;;;;;;;28.30;21.90;;;8.10;99.90;;;;;;5010572;28;20605;-70
2022/03/18 01:20:38;;;;;;;26.97;22.80;;;8.00;99.90;;;;;;5005624;28;20257;-70
2022/03/18 01:23:06;;;;;;;30.67;23.80;;;8.00;99.90;;;;;;4995960;28;20598;-70
2022/03/18 01:25:35;;;;;;;27.60;23.00;;;8.00;99.90;;;;;;5001889;28;20175;-70
2022/03/18 01:28:01;;;;;;;30.60;24.20;;;8.00;99.90;;;;;;5012316;28;20437;-70
2022/03/18 01:30:29;;;;;;;27.90;20.20;;;8.00;99.90;;;;;;5005646;28;20883;-70
2022/03/18 01:32:55;;;;;;;28.53;21.33;;;8.00;99.90;;;;;;5005345;28;20855;-70
2022/03/18 01:35:20;;;;;;;33.70;23.27;;;8.00;99.90;;;;;;5007088;28;20434;-70
2022/03/18 01:37:46;;;;;;;28.10;22.20;;;7.90;99.90;;;;;;5000632;28;20500;-70
2022/03/18 01:40:11;;;;;;;25.33;21.00;;;8.00;99.90;;;;;;5006520;28;20214;-70
2022/03/18 01:42:37;;;;;;;29.63;22.23;;;8.00;99.90;;;;;;5009021;28;20194;-70
2022/03/18 01:45:03;;;;;;;25.40;22.67;;;7.90;99.90;;;;;;5010121;28;20198;-70
2022/03/18 01:47:28;;;;;;;24.50;21.20;;;8.00;99.90;;;;;;5005533;28;20276;-70
2022/03/18 01:49:54;;;;;;;25.03;20.50;;;7.90;99.90;;;;;;5007994;28;20824;-70
2022/03/18 01:52:20;;;;;;;28.50;22.90;;;7.80;99.90;;;;;;5005240;28;20229;-70
2022/03/18 01:54:47;;;;;;;25.63;20.20;;;7.80;99.90;;;;;;5004259;28;20200;-70
2022/03/18 01:57:16;;;;;;;26.20;20.67;;;7.80;99.90;;;;;;5005669;28;20182;-70
2022/03/18 01:59:41;;;;;;;27.17;21.97;;;7.90;99.90;;;;;;4999350;28;20546;-70
2022/03/18 02:02:08;;;;;;;25.70;20.97;;;7.80;99.90;;;;;;5005632;28;20442;-70
2022/03/18 02:04:35;;;;;;;27.73;19.83;;;7.80;99.90;;;;;;5015580;28;20179;-70
2022/03/18 02:07:02;;;;;;;24.17;20.40;;;7.80;99.90;;;;;;5014022;28;20437;-70
2022/03/18 02:09:28;;;;;;;23.33;18.93;;;7.80;99.90;;;;;;5005081;28;20477;-70
2022/03/18 02:11:54;;;;;;;24.97;19.70;;;7.80;99.90;;;;;;5004436;28;20446;-70
2022/03/18 02:14:40;;;;;;;23.93;19.10;;;7.80;99.90;;;;;;5013318;28;20623;-70
2022/03/18 02:17:08;;;;;;;29.30;20.97;;;7.70;99.90;;;;;;5010028;28;20434;-70
2022/03/18 02:19:36;;;;;;;23.30;18.43;;;7.70;99.90;;;;;;5010024;28;20460;-70
2022/03/18 02:22:08;;;;;;;24.77;20.93;;;7.70;99.90;;;;;;5014306;28;20437;-70
2022/03/18 02:24:37;;;;;;;29.57;20.43;;;7.70;99.90;;;;;;5014934;28;21202;-70
2022/03/18 02:27:03;;;;;;;27.00;20.03;;;7.70;99.90;;;;;;5019940;28;20437;-71
2022/03/18 02:29:29;;;;;;;23.27;18.93;;;7.70;99.90;;;;;;5006185;28;20847;-70
2022/03/18 02:31:54;;;;;;;22.87;19.17;;;7.80;99.90;;;;;;5008745;28;20210;-70
2022/03/18 02:34:20;;;;;;;25.90;21.33;;;7.80;99.90;;;;;;5007676;28;20441;-70
2022/03/18 02:36:46;;;;;;;21.53;18.33;;;7.80;99.90;;;;;;5010208;28;20177;-70
2022/03/18 02:39:11;;;;;;;24.40;17.90;;;7.80;99.90;;;;;;5013435;28;20264;-70
2022/03/18 02:41:37;;;;;;;21.73;17.43;;;7.80;99.90;;;;;;5002180;28;20367;-70
2022/03/18 02:44:03;;;;;;;27.63;20.40;;;7.90;99.90;;;;;;5010297;28;20202;-70
2022/03/18 02:46:32;;;;;;;22.40;19.67;;;8.00;99.90;;;;;;5010910;28;20258;-70
2022/03/18 02:49:01;;;;;;;24.03;17.70;;;7.90;99.90;;;;;;5011268;28;20202;-70
2022/03/18 02:51:28;;;;;;;23.93;18.00;;;7.90;99.90;;;;;;5013375;28;20433;-70
2022/03/18 02:53:54;;;;;;;23.70;18.40;;;7.90;99.90;;;;;;4992920;28;20512;-70
2022/03/18 02:56:20;;;;;;;26.97;19.27;;;7.80;99.90;;;;;;5005933;28;20571;-70
2022/03/18 02:58:45;;;;;;;20.90;18.60;;;7.80;99.90;;;;;;5013154;28;20492;-70
2022/03/18 03:01:11;;;;;;;26.20;18.80;;;7.90;99.90;;;;;;5010547;28;20869;-70
2022/03/18 03:03:36;;;;;;;24.10;19.50;;;7.80;99.90;;;;;;5008842;28;20688;-70
2022/03/18 03:08:46;;;;;;;21.67;18.10;;;7.90;99.90;;;;;;5007540;28;20272;-70
2022/03/18 03:11:12;;;;;;;21.27;19.00;;;7.80;99.90;;;;;;4987435;28;20430;-70
2022/03/18 03:13:37;;;;;;;22.00;17.90;;;7.80;99.90;;;;;;5009425;28;20244;-70
2022/03/18 03:16:03;;;;;;;23.90;19.60;;;7.80;99.90;;;;;;5004251;28;20178;-70
2022/03/18 03:18:29;;;;;;;24.30;18.63;;;7.90;99.90;;;;;;5011900;28;20556;-70
2022/03/18 03:20:58;;;;;;;22.57;18.23;;;7.90;99.90;;;;;;5010953;28;20187;-70
2022/03/18 03:23:25;;;;;;;26.33;19.30;;;7.80;99.90;;;;;;5010030;28;20195;-70
2022/03/18 03:25:50;;;;;;;22.43;19.00;;;7.80;99.90;;;;;;5008914;28;20437;-70
2022/03/18 03:28:17;;;;;;;22.17;17.77;;;7.70;99.90;;;;;;5011385;28;20445;-70
2022/03/18 03:30:44;;;;;;;21.00;17.10;;;7.70;99.90;;;;;;5010918;28;20186;-70
2022/03/18 03:33:10;;;;;;;24.60;18.87;;;7.80;99.90;;;;;;5012155;28;20477;-70
2022/03/18 03:35:36;;;;;;;22.10;18.30;;;7.70;99.90;;;;;;5009385;28;20953;-70
2022/03/18 03:38:01;;;;;;;27.50;17.80;;;7.80;99.90;;;;;;4988736;28;20468;-70
2022/03/18 03:40:27;;;;;;;20.30;18.20;;;7.70;99.90;;;;;;5006509;28;20531;-70
2022/03/18 03:42:53;;;;;;;20.37;17.80;;;7.70;99.90;;;;;;5013036;28;20564;-70
2022/03/18 03:45:18;;;;;;;23.40;18.23;;;7.80;99.90;;;;;;5014215;28;20175;-70
2022/03/18 03:47:44;;;;;;;21.27;18.40;;;7.80;99.90;;;;;;5004508;28;20175;-70
2022/03/18 03:50:10;;;;;;;21.10;16.90;;;7.80;99.90;;;;;;5000540;28;20578;-69
2022/03/18 03:52:36;;;;;;;21.27;17.63;;;7.80;99.90;;;;;;5012183;28;20211;-69
2022/03/18 03:55:07;;;;;;;19.83;17.37;;;7.70;99.90;;;;;;5011273;28;20183;-68
2022/03/18 03:57:32;;;;;;;20.03;17.40;;;7.60;99.90;;;;;;5003435;28;20480;-68
2022/03/18 03:59:58;;;;;;;21.07;16.43;;;7.70;99.90;;;;;;5003548;28;20500;-68
2022/03/18 04:02:24;;;;;;;20.60;16.40;;;7.80;99.90;;;;;;5012451;28;20187;-69
2022/03/18 04:04:50;;;;;;;20.13;16.70;;;7.70;99.90;;;;;;5005591;28;20195;-69
2022/03/18 04:07:16;;;;;;;20.27;16.70;;;7.80;99.90;;;;;;5003520;28;20460;-69
2022/03/18 04:09:42;;;;;;;21.83;17.43;;;7.70;99.90;;;;;;5002759;28;20473;-69
2022/03/18 04:12:08;;;;;;;20.20;18.00;;;7.70;99.90;;;;;;5008858;28;20624;-68
2022/03/18 04:14:33;;;;;;;20.63;17.03;;;7.70;99.90;;;;;;5011830;28;20187;-69
2022/03/18 04:16:59;;;;;;;21.53;16.90;;;7.60;99.90;;;;;;5007964;28;20438;-70
2022/03/18 04:19:25;;;;;;;21.33;17.23;;;7.60;99.90;;;;;;4991807;28;20230;-69
2022/03/18 04:21:51;;;;;;;20.93;17.10;;;7.60;99.90;;;;;;4992755;28;20179;-69
2022/03/18 04:24:17;;;;;;;25.63;18.20;;;7.60;99.90;;;;;;5003653;28;20995;-69
2022/03/18 04:26:42;;;;;;;22.93;17.57;;;7.60;99.90;;;;;;5013930;28;20538;-69
2022/03/18 04:29:08;;;;;;;18.77;16.17;;;7.50;99.90;;;;;;5011228;28;20222;-68
2022/03/18 04:31:34;;;;;;;20.93;16.63;;;7.60;99.90;;;;;;4995930;28;20179;-69
2022/03/18 04:34:00;;;;;;;23.33;16.57;;;7.60;99.90;;;;;;5001933;28;20449;-69
2022/03/18 04:36:25;;;;;;;27.17;17.83;;;7.60;99.90;;;;;;4992999;28;20480;-68
2022/03/18 04:38:51;;;;;;;22.03;16.70;;;7.70;99.90;;;;;;5007030;28;20218;-69
2022/03/18 04:41:17;;;;;;;25.30;18.40;;;7.80;99.90;;;;;;5010607;28;20187;-69
2022/03/18 04:43:42;;;;;;;23.10;16.70;;;7.80;99.90;;;;;;5011288;28;20191;-70
2022/03/18 04:46:08;;;;;;;20.67;16.23;;;7.80;99.90;;;;;;5006864;28;20186;-69
2022/03/18 04:48:33;;;;;;;19.87;16.30;;;7.70;99.90;;;;;;5010171;28;20178;-69
2022/03/18 04:50:59;;;;;;;25.50;18.30;;;7.60;99.90;;;;;;5004147;28;21716;-69
2022/03/18 04:53:24;;;;;;;20.10;16.30;;;7.60;99.90;;;;;;5006793;28;20194;-69
2022/03/18 04:55:50;;;;;;;20.53;17.93;;;7.60;99.90;;;;;;5012881;28;20179;-68
2022/03/18 04:58:15;;;;;;;22.33;17.50;;;7.60;99.90;;;;;;5004843;28;20178;-68
2022/03/18 05:00:41;;;;;;;22.53;17.50;;;7.60;99.90;;;;;;5001590;28;20207;-69
2022/03/18 05:03:10;;;;;;;25.03;17.53;;;7.50;99.90;;;;;;5007637;28;20198;-69
2022/03/18 05:05:37;;;;;;;22.60;18.50;;;7.50;99.90;;;;;;5009374;28;20185;-69
2022/03/18 05:08:02;;;;;;;25.50;18.13;;;7.60;99.90;;;;;;5011309;28;20429;-69
2022/03/18 05:10:28;;;;;;;20.50;16.50;;;7.50;99.90;;;;;;5005766;28;20837;-69
2022/03/18 05:12:55;;;;;;;22.33;18.50;;;7.50;99.90;;;;;;5008683;28;20187;-69
2022/03/18 05:15:21;;;;;;;24.20;18.67;;;7.60;99.90;;;;;;5014145;28;20439;-69
2022/03/18 05:17:54;;;;;;;25.63;18.90;;;7.50;99.90;;;;;;5008023;28;20525;-69
2022/03/18 05:20:20;;;;;;;25.30;18.73;;;7.50;99.90;;;;;;5006502;28;20492;-68
2022/03/18 05:22:46;;;;;;;23.33;17.60;;;7.50;99.90;;;;;;5008559;28;20956;-69
2022/03/18 05:25:13;;;;;;;22.40;18.87;;;7.60;99.90;;;;;;5010617;28;20516;-68
2022/03/18 05:27:40;;;;;;;21.63;17.80;;;7.60;99.90;;;;;;5011360;28;20179;-69
2022/03/18 05:30:09;;;;;;;21.80;18.03;;;7.60;99.90;;;;;;5007437;28;20513;-68
2022/03/18 05:32:34;;;;;;;22.50;19.00;;;7.50;99.90;;;;;;5006019;28;20859;-69
2022/03/18 05:34:59;;;;;;;26.93;20.47;;;7.50;99.90;;;;;;5004441;28;20433;-70
2022/03/18 05:37:25;;;;;;;28.80;21.70;;;7.40;99.90;;;;;;5008089;28;20258;-69
2022/03/18 05:39:51;;;;;;;28.80;19.90;;;7.30;99.90;;;;;;5010138;28;20682;-69
2022/03/18 05:42:16;;;;;;;24.13;19.80;;;7.40;99.90;;;;;;5010564;28;20182;-69
2022/03/18 05:44:41;;;;;;;25.67;19.40;;;7.40;99.90;;;;;;5008399;28;20561;-70
2022/03/18 05:47:07;;;;;;;24.30;19.33;;;7.40;99.90;;;;;;5006967;28;20225;-68
2022/03/18 05:49:33;;;;;;;26.70;20.30;;;7.50;99.90;;;;;;5007876;28;20238;-69
2022/03/18 05:51:58;;;;;;;26.47;20.57;;;7.40;99.90;;;;;;5008738;28;20277;-69
2022/03/18 05:54:24;;;;;;;28.50;20.13;;;7.40;99.90;;;;;;5008416;28;20175;-69
2022/03/18 05:56:52;;;;;;;29.00;18.87;;;7.50;99.90;;;;;;5002833;28;20566;-69
2022/03/18 05:59:19;;;;;;;23.10;18.23;;;7.40;99.90;;;;;;5008537;28;20769;-69
2022/03/18 06:01:45;;;;;;;26.73;19.33;;;7.40;99.90;;;;;;5005194;28;20441;-69
2022/03/18 06:04:11;;;;;;;29.23;20.80;;;7.40;99.90;;;;;;5009563;28;20444;-69
2022/03/18 06:06:42;;;;;;;29.93;18.93;;;7.40;99.90;;;;;;5006758;28;20639;-68
2022/03/18 06:11:53;;;;;;;23.93;17.80;;;7.50;99.90;;;;;;5010961;28;20452;-69
2022/03/18 06:14:19;;;;;;;27.37;21.33;;;7.50;99.90;;;;;;5005776;28;20524;-69
2022/03/18 06:16:47;;;;;;;26.03;18.47;;;7.50;99.90;;;;;;4997304;28;20206;-69
2022/03/18 06:19:14;;;;;;;26.23;19.87;;;7.50;99.90;;;;;;5008489;28;20559;-69
2022/03/18 06:21:41;;;;;;;25.60;19.40;;;7.60;99.90;;;;;;5012199;28;20942;-69
2022/03/18 06:24:07;;;;;;;23.10;19.17;;;7.60;99.90;;;;;;5005920;28;20513;-69
2022/03/18 06:26:33;;;;;;;26.03;21.20;;;7.60;99.90;;;;;;5006436;28;20525;-69
2022/03/18 06:28:59;;;;;;;25.50;19.47;;;7.60;99.90;;;;;;5001429;28;20469;-69
2022/03/18 06:31:25;;;;;;;27.00;20.70;;;7.70;99.90;;;;;;5016844;28;20449;-69
2022/03/18 06:33:50;;;;;;;27.10;20.53;;;7.70;99.90;;;;;;4998235;28;20605;-69
2022/03/18 06:36:16;;;;;;;27.17;22.27;;;7.70;99.90;;;;;;5003551;28;20215;-69
2022/03/18 06:38:41;;;;;;;32.60;22.43;;;7.70;99.90;;;;;;5005183;28;20737;-70
2022/03/18 06:41:07;;;;;;;27.20;19.90;;;7.70;99.90;;;;;;5009364;28;20180;-69
2022/03/18 06:43:33;;;;;;;27.50;21.47;;;7.70;99.90;;;;;;5007460;28;20203;-69
2022/03/18 06:45:58;;;;;;;26.50;20.97;;;7.70;99.90;;;;;;5007298;28;20187;-69
2022/03/18 06:48:25;;;;;;;28.40;21.77;;;7.80;99.90;;;;;;5009877;28;20192;-70
2022/03/18 06:50:50;;;;;;;30.50;22.80;;;7.80;99.90;;;;;;5007874;28;20183;-69
2022/03/18 06:53:16;;;;;;;29.33;22.10;;;7.80;99.90;;;;;;5008548;28;20450;-69
2022/03/18 06:55:42;;;;;;;37.00;27.10;;;7.80;99.90;;;;;;5007039;28;20193;-69
2022/03/18 06:58:07;;;;;;;27.03;21.70;;;7.80;99.90;;;;;;5012134;28;20191;-69
2022/03/18 07:00:33;;;;;;;30.97;21.60;;;7.80;99.90;;;;;;5010880;28;20199;-69
2022/03/18 07:02:58;;;;;;;24.87;21.43;;;7.80;99.90;;;;;;4994754;28;20273;-69
2022/03/18 07:05:24;;;;;;;30.50;23.73;;;7.90;99.90;;;;;;5005906;28;20277;-69
2022/03/18 07:07:50;;;;;;;30.13;23.10;;;7.80;99.90;;;;;;5009151;28;20179;-69
2022/03/18 07:10:15;;;;;;;36.00;24.80;;;7.80;99.90;;;;;;5006425;28;20217;-69
2022/03/18 07:12:42;;;;;;;29.37;21.97;;;7.90;99.90;;;;;;5007177;28;20245;-69
2022/03/18 07:15:08;;;;;;;31.83;22.73;;;7.90;99.90;;;;;;5011685;28;20286;-69
2022/03/18 07:18:07;;;;;;;28.63;21.20;;;7.90;99.90;;;;;;5008146;28;20449;-69
2022/03/18 07:20:28;;;;;;;28.70;22.50;;;7.90;99.90;;;;;;5005618;28;20515;-68
2022/03/18 07:23:10;;;;;;;27.33;23.03;;;8.00;99.90;;;;;;5004701;28;20442;-69
2022/03/18 07:25:38;;;;;;;28.30;22.93;;;8.00;99.90;;;;;;5008208;28;20444;-70
2022/03/18 07:28:07;;;;;;;32.27;24.20;;;8.00;99.90;;;;;;5011203;28;20442;-69
2022/03/18 07:30:33;;;;;;;33.90;24.37;;;8.10;99.90;;;;;;5011608;28;20480;-69
2022/03/18 07:32:58;;;;;;;33.80;24.47;;;8.10;99.90;;;;;;5014403;28;20450;-69
2022/03/18 07:35:24;;;;;;;33.67;24.80;;;8.20;99.90;;;;;;5009953;28;20661;-69
2022/03/18 07:37:50;;;;;;;34.50;26.87;;;8.20;99.90;;;;;;5012917;28;20449;-69
2022/03/18 07:40:18;;;;;;;35.33;24.50;;;8.20;99.90;;;;;;5010746;28;20693;-69
2022/03/18 07:42:50;;;;;;;37.20;26.17;;;8.30;99.90;;;;;;5007737;28;20269;-68
2022/03/18 07:45:35;;;;;;;35.60;26.93;;;8.40;99.90;;;;;;5001593;28;20437;-69
2022/03/18 07:48:04;;;;;;;43.20;28.53;;;8.30;99.90;;;;;;5006746;28;20442;-69
2022/03/18 07:50:31;;;;;;;36.40;26.90;;;8.30;99.90;;;;;;5011640;28;20547;-71
2022/03/18 07:52:59;;;;;;;40.50;27.83;;;8.30;99.90;;;;;;5011753;28;20441;-68
2022/03/18 07:55:28;;;;;;;38.87;29.37;;;8.30;99.90;;;;;;5007249;28;20456;-70
2022/03/18 07:57:55;;;;;;;34.57;27.87;;;8.30;99.90;;;;;;4992483;28;20449;-70
2022/03/18 08:00:21;;;;;;;40.20;27.17;;;8.30;99.90;;;;;;5011671;28;20461;-70
2022/03/18 08:02:48;;;;;;;42.27;28.43;;;8.30;99.90;;;;;;5014173;28;20503;-68
2022/03/18 08:05:15;;;;;;;43.50;31.17;;;8.50;99.90;;;;;;5010728;28;20816;-68
2022/03/18 08:07:41;;;;;;;44.37;31.60;;;8.40;99.90;;;;;;5014191;28;20472;-68
2022/03/18 08:10:08;;;;;;;39.87;30.10;;;8.50;99.90;;;;;;5010473;28;20482;-68
2022/03/18 08:12:35;;;;;;;39.97;28.80;;;8.50;99.90;;;;;;5007359;28;20442;-68
2022/03/18 08:15:05;;;;;;;41.63;29.63;;;8.60;99.90;;;;;;5010110;28;21004;-68
2022/03/18 08:17:31;;;;;;;42.67;28.77;;;8.60;99.90;;;;;;5007988;28;20791;-68
2022/03/18 08:19:57;;;;;;;40.07;30.53;;;8.60;99.90;;;;;;5009599;28;20469;-68
2022/03/18 08:22:23;;;;;;;41.63;28.17;;;8.60;99.90;;;;;;5009974;28;20642;-69
2022/03/18 08:24:49;;;;;;;43.37;29.10;;;8.60;99.90;;;;;;5005317;28;20545;-68
2022/03/18 08:27:16;;;;;;;42.67;32.53;;;8.70;99.90;;;;;;5007633;28;20182;-69
2022/03/18 08:29:42;;;;;;;40.13;31.07;;;8.80;99.90;;;;;;5009817;28;20469;-68
2022/03/18 08:32:11;;;;;;;40.50;32.07;;;8.90;99.90;;;;;;4992559;28;20441;-68
2022/03/18 08:34:37;;;;;;;40.70;30.43;;;8.90;99.90;;;;;;4991632;28;20445;-68
2022/03/18 08:37:05;;;;;;;45.30;33.27;;;9.00;99.90;;;;;;5006089;28;20810;-67
2022/03/18 08:39:34;;;;;;;41.30;30.77;;;9.00;99.90;;;;;;5010406;28;20473;-68
2022/03/18 08:42:00;;;;;;;43.07;31.80;;;9.00;99.90;;;;;;5010407;28;20442;-68
2022/03/18 08:44:26;;;;;;;41.27;31.37;;;9.10;99.90;;;;;;5001018;28;20449;-68
2022/03/18 08:46:52;;;;;;;41.87;31.87;;;9.10;99.90;;;;;;5003365;28;20175;-68
2022/03/18 08:49:18;;;;;;;40.10;29.67;;;9.20;99.90;;;;;;4993150;28;20458;-68
2022/03/18 08:51:44;;;;;;;46.27;32.43;;;9.20;99.90;;;;;;5006639;28;20507;-69
2022/03/18 08:54:09;;;;;;;46.77;32.27;;;9.40;99.90;;;;;;5006614;28;20183;-68
2022/03/18 08:56:35;;;;;;;37.00;28.63;;;9.50;99.90;;;;;;5005240;28;20179;-68
2022/03/18 08:59:03;;;;;;;43.07;32.40;;;9.50;99.90;;;;;;5001254;28;20215;-69
2022/03/18 09:01:29;;;;;;;39.53;30.47;;;9.50;99.90;;;;;;5010264;28;20187;-68
2022/03/18 09:03:55;;;;;;;46.10;32.83;;;9.50;99.90;;;;;;5005667;28;20430;-67
2022/03/18 09:06:20;;;;;;;39.27;29.93;;;9.60;99.90;;;;;;5005698;28;20446;-67
2022/03/18 09:08:46;;;;;;;41.00;29.47;;;9.70;99.90;;;;;;5009800;28;20210;-68
2022/03/18 09:11:11;;;;;;;40.13;28.67;;;9.80;99.90;;;;;;5007638;28;20175;-68
2022/03/18 09:13:37;;;;;;;39.53;28.37;;;9.90;99.90;;;;;;5004059;28;20190;-68
2022/03/18 09:16:04;;;;;;;37.53;27.07;;;9.70;99.90;;;;;;5006626;28;20270;-68
2022/03/18 09:18:30;;;;;;;42.53;31.03;;;9.70;99.90;;;;;;4999927;28;20179;-68
2022/03/18 09:20:55;;;;;;;37.57;29.20;;;9.70;99.90;;;;;;5007837;28;20487;-68
2022/03/18 09:23:21;;;;;;;40.03;30.83;;;9.70;99.90;;;;;;5009679;28;20434;-69
2022/03/18 09:25:46;;;;;;;35.97;27.93;;;9.80;99.90;;;;;;5009094;28;20612;-69
2022/03/18 09:28:12;;;;;;;33.57;24.40;;;9.70;99.90;;;;;;5019499;28;20243;-68
2022/03/18 09:30:37;;;;;;;36.60;27.93;;;9.70;99.90;;;;;;5004961;28;20202;-69
2022/03/18 09:33:03;;;;;;;40.67;33.20;;;9.80;99.90;;;;;;5009861;28;20175;-68
2022/03/18 09:35:29;;;;;;;37.23;26.87;;;9.90;99.90;;;;;;5002924;28;20186;-68
2022/03/18 09:37:54;;;;;;;37.63;29.43;;;10.00;99.90;;;;;;5004782;28;20201;-68
2022/03/18 09:40:21;;;;;;;33.40;27.80;;;10.00;99.90;;;;;;5010271;28;20481;-68
2022/03/18 09:43:01;;;;;;;32.67;24.50;;;10.40;99.90;;;;;;4999167;28;20448;-68
2022/03/18 09:45:30;;;;;;;32.27;24.83;;;10.90;99.90;;;;;;5007966;28;20188;-69
2022/03/18 09:47:58;;;;;;;33.07;27.40;;;11.30;99.90;;;;;;4999826;28;20470;-69
2022/03/18 09:50:24;;;;;;;29.70;22.93;;;11.50;99.90;;;;;;5007706;28;20477;-69
2022/03/18 09:52:50;;;;;;;28.83;23.57;;;11.90;99.90;;;;;;4999288;28;20862;-69
2022/03/18 09:55:16;;;;;;;36.37;27.63;;;12.60;99.90;;;;;;5003334;28;20492;-68
2022/03/18 09:57:41;;;;;;;37.53;26.03;;;13.30;99.90;;;;;;5008348;28;21801;-68
2022/03/18 10:00:08;;;;;;;27.73;24.33;;;13.10;99.90;;;;;;5002500;28;20208;-68
2022/03/18 10:02:34;;;;;;;30.57;24.57;;;13.00;99.90;;;;;;5009048;28;20241;-69
2022/03/18 10:05:02;;;;;;;37.60;28.43;;;13.00;99.90;;;;;;5006137;28;20504;-69
2022/03/18 10:07:29;;;;;;;31.23;24.17;;;13.00;99.90;;;;;;4999203;28;20445;-68
2022/03/18 10:10:10;;;;;;;32.70;24.77;;;13.20;99.90;;;;;;5009990;28;20469;-69
2022/03/18 10:12:37;;;;;;;29.20;26.10;;;13.30;99.90;;;;;;5010013;28;20468;-68
2022/03/18 10:15:24;;;;;;;36.17;25.83;;;13.40;99.90;;;;;;5003264;28;20525;-68
2022/03/18 10:17:52;;;;;;;28.87;25.67;;;14.10;99.90;;;;;;5008628;28;20544;-69
2022/03/18 10:20:30;;;;;;;30.73;26.97;;;14.10;99.90;;;;;;5010943;28;20550;-68
2022/03/18 10:23:01;;;;;;;31.37;25.17;;;13.90;99.90;;;;;;5009955;28;20449;-69
2022/03/18 10:25:50;;;;;;;30.87;25.60;;;14.30;99.90;;;;;;5009539;28;20491;-69
2022/03/18 10:28:30;;;;;;;38.20;26.03;;;14.30;99.90;;;;;;5000295;28;20451;-69
2022/03/18 10:31:10;;;;;;;30.50;26.13;;;14.40;99.90;;;;;;5011603;28;20488;-69
2022/03/18 10:39:23;;;;;;;31.33;26.73;;;14.90;99.90;;;;;;5005986;28;21027;-69
2022/03/18 10:41:48;;;;;;;31.50;27.23;;;15.20;99.90;;;;;;5017853;28;20437;-68
2022/03/18 10:44:16;;;;;;;31.07;26.20;;;15.00;99.90;;;;;;5014916;28;20448;-68
2022/03/18 10:46:41;;;;;;;33.37;25.90;;;15.10;99.90;;;;;;5015082;28;20170;-69
2022/03/18 10:49:07;;;;;;;32.80;29.40;;;15.00;99.90;;;;;;5011066;28;20476;-68
2022/03/18 10:51:34;;;;;;;35.03;26.77;;;15.10;99.90;;;;;;5014530;28;20190;-67
2022/03/18 10:54:00;;;;;;;31.10;26.90;;;14.70;99.90;;;;;;5002520;28;20446;-69
2022/03/18 10:56:26;;;;;;;31.50;26.73;;;14.60;99.90;;;;;;5009053;28;20433;-69
2022/03/18 10:58:51;;;;;;;30.00;25.50;;;15.00;99.90;;;;;;5009997;28;20274;-68
2022/03/18 11:01:19;;;;;;;32.17;27.70;;;15.10;99.90;;;;;;5010254;28;20525;-68
2022/03/18 11:03:45;;;;;;;31.83;26.73;;;14.80;99.90;;;;;;4999901;28;20214;-69
2022/03/18 11:06:11;;;;;;;34.47;29.50;;;14.40;99.90;;;;;;5007191;28;20450;-68
2022/03/18 11:08:48;;;;;;;34.50;29.50;;;14.10;99.90;;;;;;5009020;28;20579;-67
2022/03/18 11:11:15;;;;;;;30.33;26.17;;;13.80;99.90;;;;;;5009782;28;20437;-68
2022/03/18 11:14:01;;;;;;;35.03;29.77;;;13.90;99.90;;;;;;5012809;28;20441;-68
2022/03/18 11:16:29;;;;;;;31.93;28.30;;;13.90;99.90;;;;;;5011272;28;20801;-68
2022/03/18 11:18:57;;;;;;;36.47;30.83;;;13.70;99.90;;;;;;5014785;28;20468;-68
2022/03/18 11:21:35;;;;;;;31.70;26.10;;;13.80;99.90;;;;;;4995870;28;20488;-68
2022/03/18 11:24:03;;;;;;;30.40;27.27;;;14.10;99.90;;;;;;5008582;28;20528;-69
2022/03/18 11:26:29;;;;;;;32.60;29.17;;;14.50;99.90;;;;;;5010428;28;20529;-69
2022/03/18 11:29:09;;;;;;;34.40;30.27;;;14.20;99.90;;;;;;5012508;28;20563;-69
2022/03/18 11:31:35;;;;;;;32.63;29.23;;;14.20;99.90;;;;;;5012937;28;20811;-69
2022/03/18 11:34:12;;;;;;;32.13;28.73;;;14.50;99.90;;;;;;5012011;28;21721;-68
2022/03/18 11:37:03;;;;;;;30.03;26.77;;;14.90;99.90;;;;;;5007150;28;20430;-68
2022/03/18 11:39:29;;;;;;;34.63;27.67;;;15.20;99.90;;;;;;5005693;28;20473;-68
2022/03/18 11:41:56;;;;;;;33.23;27.87;;;16.20;99.90;;;;;;5007332;28;20438;-68
2022/03/18 11:44:45;;;;;;;31.50;27.90;;;16.70;99.90;;;;;;5006640;28;20310;-68
2022/03/18 11:47:22;;;;;;;32.30;28.00;;;16.60;99.90;;;;;;5016127;28;20529;-68
2022/03/18 11:49:49;;;;;;;29.03;25.97;;;17.00;99.90;;;;;;5000543;28;20891;-69
2022/03/18 11:52:15;;;;;;;31.03;26.60;;;17.20;98.90;;;;;;5010131;28;20453;-69
2022/03/18 11:55:07;;;;;;;34.00;30.43;;;18.40;97.80;;;;;;5011818;28;20517;-68
2022/03/18 11:57:34;;;;;;;36.50;32.10;;;18.50;96.80;;;;;;5005687;28;20434;-69
2022/03/18 12:00:05;;;;;;;31.13;27.87;;;17.80;96.80;;;;;;5006919;28;20460;-71
2022/03/18 12:02:41;;;;;;;31.63;27.23;;;17.80;96.60;;;;;;5011796;28;20442;-71
2022/03/18 12:05:07;;;;;;;32.73;29.20;;;18.00;95.90;;;;;;5012099;28;20512;-71
2022/03/18 12:07:46;;;;;;;34.07;30.57;;;18.20;95.50;;;;;;5012062;28;20519;-70
2022/03/18 12:10:18;;;;;;;30.80;27.80;;;17.80;96.50;;;;;;5010623;28;20886;-69
2022/03/18 12:12:48;;;;;;;36.63;31.93;;;17.60;95.90;;;;;;5006577;28;20445;-68
2022/03/18 12:15:19;;;;;;;28.90;25.90;;;17.30;96.20;;;;;;5011484;28;20433;-68
2022/03/18 12:17:53;;;;;;;30.70;27.70;;;17.70;97.30;;;;;;5003741;28;20435;-72
2022/03/18 12:20:23;;;;;;;32.97;28.40;;;18.20;94.90;;;;;;5005427;28;20474;-72
2022/03/18 12:22:50;;;;;;;30.63;27.67;;;18.70;94.30;;;;;;5012930;28;20504;-72
2022/03/18 12:25:16;;;;;;;32.33;29.13;;;18.40;94.00;;;;;;5011690;28;20487;-73
2022/03/18 12:27:44;;;;;;;30.20;27.27;;;18.20;93.80;;;;;;5011850;28;20469;-73
2022/03/18 12:30:14;;;;;;;31.87;28.67;;;18.00;94.20;;;;;;5010459;28;20465;-73
2022/03/18 12:33:09;;;;;;;33.13;29.63;;;17.90;93.90;;;;;;4993884;28;20504;-73
2022/03/18 12:35:42;;;;;;;33.13;29.40;;;17.80;93.80;;;;;;4991115;28;20444;-73
2022/03/18 12:38:11;;;;;;;35.33;31.80;;;17.20;94.80;;;;;;5003114;28;20458;-72
2022/03/18 12:40:53;;;;;;;33.87;30.20;;;17.00;95.30;;;;;;5002522;28;20466;-73
2022/03/18 12:43:19;;;;;;;33.57;30.27;;;16.50;95.90;;;;;;4999028;28;20525;-72
2022/03/18 12:45:45;;;;;;;34.37;30.67;;;16.20;96.60;;;;;;5005319;28;20435;-73
2022/03/18 12:48:13;;;;;;;33.03;29.10;;;16.20;96.90;;;;;;5000197;28;20442;-73
2022/03/18 12:50:42;;;;;;;31.57;28.33;;;16.80;96.40;;;;;;5001674;28;20476;-74
2022/03/18 12:53:15;;;;;;;33.93;30.63;;;17.40;95.70;;;;;;5006482;28;20963;-74